Lake Montcelo, Virginia
Current Conditions -  °F | °C
As of 4:15 PM on Sunday 23 Nov 2014 (Local Time) from KLKU Reporting Station
Drizzle Drizzle  
Wind Chill: 55°   Ceiling: 4400
Heat Index: 55°   Visibility: 10mi
Dew Point: 45°   Wind: 0mph
Humidity: 67%   Direction: NA
Pressure: 30.06"   Gusts: NA
Location:  37.8582°N, 78.2803°W
Report Text: KLKU 232115Z AUTO 00000KT 10SM DZ BKN044 OVC050 13/07 A3006 RMK AO2
Loading
Personal Weather Stations






























Interactive Weather Map New forecast layout! Learn more

10-Day Weather Forecast

Advertisements
Track Severe Weather on mobile